Time;durP1;ratioP1;P1;durP2;ratioP2;P2;SDS_P1;SDS_P2;PMS_P1;PMS_P2;Temp;Humidity;BMP_temperature;BMP_pressure;BME280_temperature;BME280_humidity;BME280_pressure;Samples;Min_cycle;Max_cycle;Signal;HPM_P1;HPM_P2
2023/11/28 00:01:02;;;;;;;9.48;7.55;;;2.80;99.90;;;;;;5026721;28;20092;-88
2023/11/28 00:03:28;;;;;;;9.38;7.80;;;2.80;99.90;;;;;;5019639;28;20540;-88
2023/11/28 00:05:54;;;;;;;10.43;7.78;;;2.80;99.90;;;;;;5031539;28;20026;-88
2023/11/28 00:08:20;;;;;;;9.05;7.55;;;2.80;99.90;;;;;;5032056;28;20034;-88
2023/11/28 00:10:46;;;;;;;8.63;7.43;;;2.80;99.90;;;;;;5016448;28;20022;-88
2023/11/28 00:13:12;;;;;;;11.40;8.05;;;2.80;99.90;;;;;;5016305;28;20037;-87
2023/11/28 00:15:38;;;;;;;12.02;9.93;;;2.80;99.90;;;;;;5007157;28;20026;-88
2023/11/28 00:18:04;;;;;;;13.88;11.05;;;2.80;99.90;;;;;;5014361;28;20173;-88
2023/11/28 00:20:29;;;;;;;16.65;11.57;;;2.80;99.90;;;;;;5018803;28;20031;-87
2023/11/28 00:22:55;;;;;;;14.32;10.80;;;2.80;99.90;;;;;;5015724;28;20140;-88
2023/11/28 00:25:20;;;;;;;14.75;11.75;;;2.80;99.90;;;;;;5024696;28;20030;-88
2023/11/28 00:27:46;;;;;;;15.55;11.80;;;2.80;99.90;;;;;;5016261;28;20096;-88
2023/11/28 00:30:13;;;;;;;14.48;10.98;;;2.70;99.90;;;;;;5045499;28;20075;-88
2023/11/28 00:32:38;;;;;;;15.80;11.88;;;2.70;99.90;;;;;;5028813;28;20215;-87
2023/11/28 00:35:05;;;;;;;16.58;11.90;;;2.70;99.90;;;;;;5023735;28;20542;-88
2023/11/28 00:37:30;;;;;;;15.02;11.63;;;2.70;99.90;;;;;;5032216;28;20114;-88
2023/11/28 00:39:56;;;;;;;15.63;11.35;;;2.70;99.90;;;;;;5030754;28;20109;-88
2023/11/28 00:42:22;;;;;;;15.57;11.50;;;2.70;99.90;;;;;;5015240;28;20025;-88
2023/11/28 00:44:47;;;;;;;16.67;11.38;;;2.70;99.90;;;;;;5032727;28;20025;-88
2023/11/28 00:47:13;;;;;;;15.82;11.25;;;2.70;99.90;;;;;;5016981;28;20029;-88
2023/11/28 00:49:42;;;;;;;14.25;10.73;;;2.70;99.90;;;;;;5028700;28;20094;-88
2023/11/28 00:52:10;;;;;;;13.77;9.95;;;2.70;99.90;;;;;;5013276;28;20038;-87
2023/11/28 00:54:36;;;;;;;13.00;9.40;;;2.70;99.90;;;;;;5010877;28;20044;-88
2023/11/28 00:57:03;;;;;;;13.52;9.38;;;2.60;99.90;;;;;;5023181;28;20121;-87
2023/11/28 00:59:28;;;;;;;13.82;9.02;;;2.60;99.90;;;;;;5022117;28;20036;-87
2023/11/28 01:01:54;;;;;;;13.00;9.38;;;2.60;99.90;;;;;;5025667;28;20033;-87
2023/11/28 01:04:19;;;;;;;11.73;8.57;;;2.60;99.90;;;;;;5027375;28;20063;-87
2023/11/28 01:06:45;;;;;;;10.98;8.18;;;2.60;99.90;;;;;;5016939;28;20493;-87
2023/11/28 01:09:14;;;;;;;10.52;6.85;;;2.60;99.90;;;;;;5015775;28;20022;-88
2023/11/28 01:11:39;;;;;;;9.82;7.45;;;2.60;99.90;;;;;;5021070;28;20025;-87
2023/11/28 01:14:05;;;;;;;11.38;8.43;;;2.50;99.90;;;;;;5024858;28;20092;-87
2023/11/28 01:16:30;;;;;;;11.55;8.73;;;2.60;99.90;;;;;;5015060;28;20021;-87
2023/11/28 01:18:56;;;;;;;12.02;8.80;;;2.60;99.90;;;;;;5005911;28;20032;-87
2023/11/28 01:21:21;;;;;;;11.45;8.43;;;2.60;99.90;;;;;;5017144;28;20056;-87
2023/11/28 01:23:47;;;;;;;11.25;8.38;;;2.50;99.90;;;;;;5015037;28;20388;-88
2023/11/28 01:26:13;;;;;;;12.02;8.68;;;2.50;99.90;;;;;;5023415;28;20032;-87
2023/11/28 01:28:39;;;;;;;11.68;8.65;;;2.50;99.90;;;;;;5022157;28;20075;-87
2023/11/28 01:31:05;;;;;;;10.82;7.78;;;2.50;99.90;;;;;;5010124;28;20113;-87
2023/11/28 01:33:31;;;;;;;11.48;8.40;;;2.40;99.90;;;;;;5000930;28;20088;-87
2023/11/28 01:35:56;;;;;;;12.15;8.15;;;2.40;99.90;;;;;;5015046;28;20025;-87
2023/11/28 01:38:22;;;;;;;10.80;7.90;;;2.40;99.90;;;;;;5016238;28;20132;-87
2023/11/28 01:40:51;;;;;;;9.50;6.57;;;2.40;99.90;;;;;;5022621;28;20398;-87
2023/11/28 01:43:28;;;;;;;8.32;6.82;;;2.40;99.90;;;;;;5011742;28;20409;-88
2023/11/28 01:45:54;;;;;;;8.77;6.70;;;2.40;99.90;;;;;;5032001;28;20064;-88
2023/11/28 01:48:20;;;;;;;11.25;7.07;;;2.40;99.90;;;;;;5013438;28;20025;-87
2023/11/28 01:50:50;;;;;;;9.82;7.38;;;2.40;99.90;;;;;;5013378;28;20032;-88
2023/11/28 01:53:17;;;;;;;13.93;9.57;;;2.40;99.90;;;;;;5014484;28;20026;-88
2023/11/28 01:55:43;;;;;;;10.82;8.30;;;2.40;99.90;;;;;;5004697;28;20143;-88
2023/11/28 01:58:09;;;;;;;12.85;9.68;;;2.40;99.90;;;;;;5028606;28;20038;-87
2023/11/28 02:00:36;;;;;;;11.77;8.73;;;2.40;99.90;;;;;;5024834;28;20025;-88
2023/11/28 02:03:03;;;;;;;14.02;9.23;;;2.30;99.90;;;;;;5031836;28;20072;-88
2023/11/28 02:05:29;;;;;;;14.15;9.57;;;2.30;99.90;;;;;;5031250;28;20085;-88
2023/11/28 02:07:55;;;;;;;13.57;9.93;;;2.20;99.90;;;;;;5027087;28;20121;-88
2023/11/28 02:10:23;;;;;;;12.73;9.68;;;2.30;99.90;;;;;;5017568;28;20028;-87
2023/11/28 02:12:49;;;;;;;12.60;8.95;;;2.10;99.90;;;;;;5029993;28;20026;-88
2023/11/28 02:15:14;;;;;;;12.38;8.93;;;2.20;99.90;;;;;;5020962;28;20064;-88
2023/11/28 02:17:40;;;;;;;11.48;7.78;;;2.20;99.90;;;;;;5011581;28;20021;-88
2023/11/28 02:20:08;;;;;;;11.60;7.68;;;2.20;99.90;;;;;;5021825;28;20068;-88
2023/11/28 02:22:34;;;;;;;10.80;7.30;;;2.20;99.90;;;;;;5018378;28;20039;-86
2023/11/28 02:25:01;;;;;;;13.90;7.80;;;2.10;99.90;;;;;;5021365;28;20481;-87
2023/11/28 02:27:27;;;;;;;9.98;7.15;;;2.10;99.90;;;;;;5015392;28;20105;-88
2023/11/28 02:29:52;;;;;;;11.88;8.05;;;2.10;99.90;;;;;;5026278;28;20058;-88
2023/11/28 02:32:19;;;;;;;11.65;7.57;;;2.10;99.90;;;;;;5016813;28;20029;-88
2023/11/28 02:34:44;;;;;;;12.00;7.65;;;2.10;99.90;;;;;;5001504;28;20026;-88
2023/11/28 02:37:10;;;;;;;10.57;7.70;;;2.10;99.90;;;;;;5034213;28;20032;-88
2023/11/28 02:39:36;;;;;;;12.77;9.18;;;2.10;99.90;;;;;;5015967;28;20045;-88
2023/11/28 02:42:01;;;;;;;11.90;8.40;;;2.00;99.90;;;;;;5006057;28;20064;-88
2023/11/28 02:44:27;;;;;;;11.73;9.10;;;2.10;99.90;;;;;;5033709;28;20093;-88
2023/11/28 02:46:52;;;;;;;11.18;8.48;;;2.10;99.90;;;;;;5019735;28;20096;-88
2023/11/28 02:49:18;;;;;;;11.27;8.60;;;2.10;99.90;;;;;;5024918;28;20043;-88
2023/11/28 02:51:44;;;;;;;14.65;8.43;;;2.10;99.90;;;;;;5020734;28;20033;-88
2023/11/28 02:54:09;;;;;;;12.63;9.18;;;2.10;99.90;;;;;;5014928;28;20021;-88
2023/11/28 02:56:35;;;;;;;13.18;10.45;;;2.10;99.90;;;;;;5014707;28;20037;-88
2023/11/28 02:59:00;;;;;;;13.60;10.50;;;2.10;99.90;;;;;;5030515;28;20030;-88
2023/11/28 03:01:26;;;;;;;15.57;11.15;;;2.10;99.90;;;;;;5027850;28;20116;-88
2023/11/28 03:03:51;;;;;;;15.25;10.55;;;2.10;99.90;;;;;;5019393;28;20032;-88
2023/11/28 03:06:17;;;;;;;16.52;10.85;;;2.10;99.90;;;;;;5024589;28;20429;-88
2023/11/28 03:08:42;;;;;;;18.85;12.07;;;2.10;99.90;;;;;;5029565;28;20037;-87
2023/11/28 03:11:09;;;;;;;16.00;12.32;;;2.10;99.90;;;;;;5021328;28;20413;-87
2023/11/28 03:13:34;;;;;;;15.55;11.38;;;2.10;99.90;;;;;;5014752;28;20064;-88
2023/11/28 03:16:01;;;;;;;14.45;9.63;;;2.10;99.90;;;;;;5016894;28;20057;-87
2023/11/28 03:18:27;;;;;;;16.77;11.98;;;2.10;99.90;;;;;;5038408;28;20059;-88
2023/11/28 03:20:52;;;;;;;14.90;10.88;;;2.00;99.90;;;;;;5006815;28;20541;-88
2023/11/28 03:23:18;;;;;;;17.63;11.68;;;2.00;99.90;;;;;;5016752;28;20037;-88
2023/11/28 03:25:44;;;;;;;14.80;9.82;;;2.00;99.90;;;;;;5006393;28;20026;-88
2023/11/28 03:28:09;;;;;;;17.73;11.30;;;2.00;99.90;;;;;;5020969;28;20029;-88
2023/11/28 03:30:35;;;;;;;14.60;10.43;;;2.00;99.90;;;;;;5009471;28;20030;-88
2023/11/28 03:33:01;;;;;;;16.50;10.70;;;2.00;99.90;;;;;;5023910;28;20509;-89
2023/11/28 03:35:28;;;;;;;18.88;11.13;;;2.00;99.90;;;;;;5010471;28;20037;-88
2023/11/28 03:37:54;;;;;;;13.95;10.02;;;2.00;99.90;;;;;;5015758;28;20182;-88
2023/11/28 03:40:20;;;;;;;13.90;9.05;;;1.90;99.90;;;;;;5031553;28;20060;-88
2023/11/28 03:42:46;;;;;;;13.50;9.75;;;2.00;99.90;;;;;;5018490;28;20033;-88
2023/11/28 03:45:13;;;;;;;14.98;9.43;;;2.00;99.90;;;;;;5001525;28;20117;-88
2023/11/28 03:47:39;;;;;;;12.00;9.15;;;2.00;99.90;;;;;;5010893;28;20025;-88
2023/11/28 03:50:05;;;;;;;13.20;9.30;;;1.90;99.90;;;;;;5034685;28;20148;-88
2023/11/28 03:52:31;;;;;;;12.52;8.73;;;1.90;99.90;;;;;;5009335;28;20474;-88
2023/11/28 03:54:58;;;;;;;11.65;7.93;;;1.90;99.90;;;;;;5015504;28;20045;-87
2023/11/28 03:57:23;;;;;;;12.55;8.25;;;1.90;99.90;;;;;;5032535;28;20029;-88
2023/11/28 03:59:49;;;;;;;12.43;7.72;;;1.90;99.90;;;;;;5015352;28;20028;-87
2023/11/28 04:02:15;;;;;;;10.00;7.28;;;1.90;99.90;;;;;;5007393;28;20041;-88
2023/11/28 04:04:41;;;;;;;9.77;6.82;;;1.90;99.90;;;;;;5016406;28;20017;-88
2023/11/28 04:07:07;;;;;;;10.40;5.68;;;1.80;99.90;;;;;;5033571;28;20033;-88
2023/11/28 04:09:32;;;;;;;9.00;5.82;;;1.80;99.90;;;;;;5030894;28;20025;-88
2023/11/28 04:11:58;;;;;;;9.38;6.00;;;1.70;99.90;;;;;;5017720;28;20034;-88
2023/11/28 04:14:24;;;;;;;10.95;5.50;;;1.70;99.90;;;;;;5022664;28;20026;-88
2023/11/28 04:16:49;;;;;;;8.75;5.05;;;1.60;99.90;;;;;;5006980;28;20440;-88
2023/11/28 04:19:15;;;;;;;8.40;4.68;;;1.50;99.90;;;;;;5013808;28;20084;-88
2023/11/28 04:21:41;;;;;;;7.30;4.00;;;1.40;99.90;;;;;;5016701;28;20112;-88
2023/11/28 04:24:07;;;;;;;6.18;4.07;;;1.30;99.90;;;;;;5011734;28;20030;-88
2023/11/28 04:26:33;;;;;;;6.00;3.00;;;1.20;99.90;;;;;;5011922;28;20048;-88
2023/11/28 04:28:59;;;;;;;6.25;3.13;;;1.10;99.90;;;;;;5020703;28;20519;-88
2023/11/28 04:31:24;;;;;;;5.00;2.30;;;1.00;99.90;;;;;;5021035;28;20060;-88
2023/11/28 04:33:50;;;;;;;4.93;2.83;;;1.00;99.90;;;;;;5025895;28;20034;-88
2023/11/28 04:36:16;;;;;;;5.03;2.55;;;0.80;99.90;;;;;;5025685;28;20025;-88
2023/11/28 04:38:42;;;;;;;4.68;2.03;;;0.70;99.90;;;;;;5019163;28;20075;-88
2023/11/28 04:41:10;;;;;;;4.10;1.90;;;0.70;99.90;;;;;;5031128;28;20022;-89
2023/11/28 04:43:36;;;;;;;4.05;1.60;;;0.60;99.90;;;;;;5027460;28;20037;-88
2023/11/28 04:46:02;;;;;;;4.70;1.58;;;0.60;99.90;;;;;;5020987;28;20096;-89
2023/11/28 04:48:27;;;;;;;4.55;1.92;;;0.50;99.90;;;;;;5022759;28;20394;-88
2023/11/28 04:50:53;;;;;;;3.95;1.90;;;0.40;99.90;;;;;;5028196;28;20026;-88
2023/11/28 04:53:19;;;;;;;3.40;1.58;;;0.40;99.90;;;;;;5008238;28;20489;-88
2023/11/28 04:55:44;;;;;;;3.58;1.40;;;0.40;99.90;;;;;;5014430;28;20025;-88
2023/11/28 04:58:10;;;;;;;4.13;1.30;;;0.30;99.90;;;;;;5023242;28;20026;-89
2023/11/28 05:00:35;;;;;;;3.70;1.52;;;0.30;99.90;;;;;;5016583;28;20032;-89
2023/11/28 05:03:01;;;;;;;3.35;1.58;;;0.30;99.90;;;;;;5022559;28;20052;-89
2023/11/28 05:05:26;;;;;;;4.07;1.00;;;0.20;99.90;;;;;;5017045;28;20208;-89
2023/11/28 05:07:52;;;;;;;3.53;1.42;;;0.20;99.90;;;;;;5006553;28;20138;-89
2023/11/28 05:10:18;;;;;;;2.83;1.17;;;0.20;99.90;;;;;;5016666;28;20017;-89
2023/11/28 05:12:43;;;;;;;4.03;1.08;;;0.10;99.90;;;;;;5015276;28;20036;-90
2023/11/28 05:15:09;;;;;;;3.63;1.23;;;0.10;99.90;;;;;;5017196;28;20370;-89
2023/11/28 05:17:35;;;;;;;3.97;1.52;;;0.10;99.90;;;;;;5013385;28;20037;-90
2023/11/28 05:20:00;;;;;;;3.67;1.15;;;0.10;99.90;;;;;;5019819;28;20048;-89
2023/11/28 05:22:26;;;;;;;3.97;1.50;;;0.10;99.90;;;;;;5022319;28;20570;-90
2023/11/28 05:24:52;;;;;;;3.67;1.23;;;0.10;99.90;;;;;;5027641;28;20017;-90
2023/11/28 05:27:17;;;;;;;6.22;1.33;;;0.00;99.90;;;;;;5022488;28;20032;-90
2023/11/28 05:29:43;;;;;;;2.92;1.15;;;0.10;99.90;;;;;;5015025;28;20109;-89
2023/11/28 05:32:08;;;;;;;4.35;1.67;;;0.00;99.90;;;;;;5018927;28;20037;-89
2023/11/28 05:34:34;;;;;;;3.78;1.45;;;0.00;99.90;;;;;;5011344;28;20031;-89
2023/11/28 05:36:59;;;;;;;6.80;1.42;;;0.00;99.90;;;;;;5008552;28;20037;-90
2023/11/28 05:39:25;;;;;;;5.30;1.80;;;0.00;99.90;;;;;;5018598;28;20045;-90
2023/11/28 05:41:51;;;;;;;3.55;1.73;;;0.00;99.90;;;;;;5026709;28;20073;-89
2023/11/28 05:44:16;;;;;;;4.00;1.85;;;0.00;99.90;;;;;;5014727;28;20466;-89
2023/11/28 05:46:42;;;;;;;3.47;1.55;;;0.00;99.90;;;;;;5024810;28;20547;-89
2023/11/28 05:49:07;;;;;;;5.82;2.10;;;0.10;99.90;;;;;;5012864;28;20030;-89
2023/11/28 05:51:33;;;;;;;7.70;3.50;;;0.10;99.90;;;;;;5013766;28;20010;-89
2023/11/28 05:53:59;;;;;;;3.92;1.90;;;0.00;99.90;;;;;;5015390;28;20163;-90
2023/11/28 05:56:25;;;;;;;4.03;1.98;;;0.10;99.90;;;;;;5012590;28;20022;-90
2023/11/28 05:58:50;;;;;;;5.78;1.88;;;0.00;99.90;;;;;;5017660;28;20022;-90
2023/11/28 06:01:16;;;;;;;4.30;2.15;;;0.10;99.90;;;;;;5027601;28;20068;-90
2023/11/28 06:03:42;;;;;;;4.47;1.90;;;0.10;99.90;;;;;;5018279;28;20026;-90
2023/11/28 06:06:08;;;;;;;4.75;2.38;;;0.10;99.90;;;;;;5025649;28;20385;-90
2023/11/28 06:08:34;;;;;;;5.05;2.17;;;0.20;99.90;;;;;;5014744;28;20033;-90
2023/11/28 06:11:00;;;;;;;6.97;2.70;;;0.20;99.90;;;;;;5014082;28;20032;-90
2023/11/28 06:13:27;;;;;;;4.95;1.92;;;0.30;99.90;;;;;;5007277;28;20021;-90
2023/11/28 06:15:52;;;;;;;6.75;3.28;;;0.30;99.90;;;;;;5022043;28;20043;-89
2023/11/28 06:18:19;;;;;;;4.50;2.30;;;0.40;99.90;;;;;;5019381;28;20030;-90
2023/11/28 06:20:45;;;;;;;6.43;2.15;;;0.40;99.90;;;;;;5032558;28;20061;-90
2023/11/28 06:23:11;;;;;;;7.57;2.38;;;0.50;99.90;;;;;;5016314;28;20631;-90
2023/11/28 06:25:37;;;;;;;4.80;1.85;;;0.50;99.90;;;;;;5017569;28;20049;-90
2023/11/28 06:28:02;;;;;;;4.30;1.80;;;0.50;99.90;;;;;;5026241;28;20882;-89
2023/11/28 06:30:28;;;;;;;6.80;2.45;;;0.50;99.90;;;;;;5025263;28;20064;-90
2023/11/28 06:32:53;;;;;;;5.18;2.28;;;0.50;99.90;;;;;;5017472;28;20060;-90
2023/11/28 06:35:19;;;;;;;4.10;2.10;;;0.50;99.90;;;;;;5016936;28;20572;-90
2023/11/28 06:37:46;;;;;;;3.63;1.75;;;0.50;99.90;;;;;;5018854;28;20068;-90
2023/11/28 06:40:15;;;;;;;5.18;2.15;;;0.60;99.90;;;;;;5019240;28;20030;-90
2023/11/28 06:42:43;;;;;;;6.50;2.03;;;0.60;99.90;;;;;;5013417;28;20042;-90
2023/11/28 06:45:10;;;;;;;5.00;2.58;;;0.60;99.90;;;;;;5024817;28;20049;-91
2023/11/28 06:47:36;;;;;;;3.88;2.17;;;0.70;99.90;;;;;;5017398;28;20033;-90
2023/11/28 06:50:01;;;;;;;5.13;2.33;;;0.70;99.90;;;;;;5015306;28;20136;-90
2023/11/28 06:52:27;;;;;;;6.30;2.35;;;0.70;99.90;;;;;;5009362;28;20490;-90
2023/11/28 06:54:52;;;;;;;6.18;2.25;;;0.70;99.90;;;;;;5018717;28;20512;-90
2023/11/28 06:57:18;;;;;;;4.80;1.88;;;0.70;99.90;;;;;;5015993;28;20104;-90
2023/11/28 06:59:43;;;;;;;5.88;2.03;;;0.70;99.90;;;;;;5031978;28;20057;-90
2023/11/28 07:02:09;;;;;;;4.22;1.90;;;0.70;99.90;;;;;;5025539;28;20041;-90
2023/11/28 07:04:35;;;;;;;4.30;2.63;;;0.60;99.90;;;;;;5024054;28;20017;-91
2023/11/28 07:07:00;;;;;;;3.05;1.58;;;0.60;99.90;;;;;;5013013;28;20044;-90
2023/11/28 07:09:26;;;;;;;5.65;2.45;;;0.60;99.90;;;;;;5018324;28;20017;-91
2023/11/28 07:11:53;;;;;;;3.97;1.98;;;0.60;99.90;;;;;;5014025;28;20026;-90
2023/11/28 07:14:18;;;;;;;4.70;2.58;;;0.60;99.90;;;;;;5009654;28;20021;-91
2023/11/28 07:16:44;;;;;;;5.63;2.15;;;0.60;99.90;;;;;;5018162;28;20033;-90
2023/11/28 07:19:09;;;;;;;5.22;2.15;;;0.60;99.90;;;;;;5017494;28;20026;-90
2023/11/28 07:21:36;;;;;;;4.82;2.00;;;0.60;99.90;;;;;;5014152;28;20470;-90
2023/11/28 07:24:02;;;;;;;3.85;1.85;;;0.50;99.90;;;;;;5019188;28;20131;-90
2023/11/28 07:26:27;;;;;;;6.18;1.88;;;0.50;99.90;;;;;;5015430;28;20032;-90
2023/11/28 07:28:53;;;;;;;4.85;2.03;;;0.50;99.90;;;;;;5019738;28;20038;-91
2023/11/28 07:31:19;;;;;;;4.30;2.25;;;0.60;99.90;;;;;;5014246;28;20025;-92
2023/11/28 07:33:44;;;;;;;5.32;1.90;;;0.60;99.90;;;;;;5030186;28;20025;-91
2023/11/28 07:36:11;;;;;;;7.88;2.13;;;0.60;99.90;;;;;;5016049;28;20510;-90
2023/11/28 07:38:37;;;;;;;4.65;1.88;;;0.60;99.90;;;;;;5016577;28;20052;-91
2023/11/28 07:41:03;;;;;;;5.13;2.03;;;0.60;99.90;;;;;;5019892;28;20029;-89
2023/11/28 07:43:29;;;;;;;6.00;2.30;;;0.60;99.90;;;;;;5032428;28;20092;-90
2023/11/28 07:45:56;;;;;;;4.40;1.90;;;0.60;99.90;;;;;;5019737;28;20029;-90
2023/11/28 07:48:22;;;;;;;4.57;1.58;;;0.70;99.90;;;;;;5023320;28;20033;-90
2023/11/28 07:50:47;;;;;;;4.75;2.03;;;0.60;99.90;;;;;;5018821;28;20026;-90
2023/11/28 07:53:13;;;;;;;6.03;2.22;;;0.70;99.90;;;;;;5015272;28;20040;-90
2023/11/28 07:55:39;;;;;;;4.35;1.88;;;0.70;99.90;;;;;;5010942;28;20061;-90
2023/11/28 07:58:04;;;;;;;2.88;1.40;;;0.70;99.90;;;;;;5014241;28;20079;-89
2023/11/28 08:00:30;;;;;;;4.05;1.77;;;0.70;99.90;;;;;;5024196;28;20107;-90
2023/11/28 08:02:56;;;;;;;3.00;1.58;;;0.70;99.90;;;;;;5023938;28;20116;-90
2023/11/28 08:05:22;;;;;;;5.30;2.08;;;0.70;99.90;;;;;;5026066;28;20068;-89
2023/11/28 08:07:47;;;;;;;4.65;1.58;;;0.70;99.90;;;;;;5016667;28;20030;-90
2023/11/28 08:10:14;;;;;;;4.00;2.33;;;0.70;99.90;;;;;;5019994;28;20033;-90
2023/11/28 08:12:39;;;;;;;3.08;1.33;;;0.70;99.90;;;;;;5022941;28;20040;-90
2023/11/28 08:15:06;;;;;;;2.53;1.20;;;0.80;99.90;;;;;;5019397;28;20049;-90
2023/11/28 08:17:32;;;;;;;4.38;1.75;;;0.80;99.90;;;;;;5031645;28;20033;-90
2023/11/28 08:19:58;;;;;;;5.55;1.90;;;0.80;99.90;;;;;;5024333;28;20025;-89
2023/11/28 08:22:25;;;;;;;3.13;1.40;;;0.80;99.90;;;;;;5034926;28;20087;-89
2023/11/28 08:24:51;;;;;;;5.32;1.50;;;0.90;99.90;;;;;;5018221;28;20470;-89
2023/11/28 08:27:18;;;;;;;3.92;1.35;;;0.90;99.90;;;;;;5019009;28;20079;-90
2023/11/28 08:29:44;;;;;;;2.72;1.10;;;1.00;99.90;;;;;;5023679;28;20033;-90
2023/11/28 08:32:10;;;;;;;2.20;1.05;;;1.00;99.90;;;;;;5034842;28;20022;-90
2023/11/28 08:34:35;;;;;;;2.85;1.10;;;1.00;99.90;;;;;;5018182;28;20036;-89
2023/11/28 08:37:02;;;;;;;3.30;1.08;;;1.10;99.90;;;;;;5026379;28;20033;-91
2023/11/28 08:39:28;;;;;;;3.67;1.35;;;1.10;99.90;;;;;;5018490;28;20064;-90
2023/11/28 08:41:57;;;;;;;4.05;1.50;;;1.20;99.90;;;;;;5018866;28;20041;-90
2023/11/28 08:44:22;;;;;;;1.90;0.88;;;1.20;99.90;;;;;;5017513;28;20052;-90
2023/11/28 08:46:48;;;;;;;3.83;0.95;;;1.10;99.90;;;;;;5018329;28;20017;-90
2023/11/28 08:49:14;;;;;;;3.88;1.00;;;1.10;99.90;;;;;;5033405;28;20032;-90
2023/11/28 08:51:41;;;;;;;2.40;0.90;;;1.00;99.90;;;;;;5017982;28;20033;-90
2023/11/28 08:54:06;;;;;;;2.50;0.98;;;1.00;99.90;;;;;;5019018;28;20112;-89
2023/11/28 08:56:32;;;;;;;3.30;0.90;;;0.90;99.90;;;;;;5015817;28;20057;-90
2023/11/28 08:58:58;;;;;;;3.70;0.90;;;1.00;99.90;;;;;;5001496;28;20491;-90
2023/11/28 09:01:23;;;;;;;2.60;0.80;;;1.00;99.90;;;;;;5025725;28;20029;-90
2023/11/28 09:03:50;;;;;;;2.85;1.30;;;1.10;99.90;;;;;;5002899;28;20037;-89
2023/11/28 09:06:16;;;;;;;4.70;1.65;;;1.10;99.90;;;;;;5004966;28;20397;-90
2023/11/28 09:08:42;;;;;;;5.53;2.35;;;1.20;99.90;;;;;;5033671;28;20029;-90
2023/11/28 09:11:08;;;;;;;7.53;2.90;;;1.20;99.90;;;;;;5030192;28;20032;-89
2023/11/28 09:13:33;;;;;;;7.43;2.63;;;1.30;99.90;;;;;;5021452;28;20025;-90
2023/11/28 09:16:02;;;;;;;5.93;3.17;;;1.20;99.90;;;;;;5013216;28;20133;-90
2023/11/28 09:18:28;;;;;;;5.80;2.80;;;1.30;99.90;;;;;;5027793;28;20025;-90
2023/11/28 09:20:54;;;;;;;6.70;2.92;;;1.30;99.90;;;;;;5034192;28;20044;-90
2023/11/28 09:23:19;;;;;;;6.00;3.17;;;1.30;99.90;;;;;;5018927;28;20033;-90
2023/11/28 09:25:45;;;;;;;4.85;3.03;;;1.40;99.90;;;;;;5022441;28;20080;-90
2023/11/28 09:28:11;;;;;;;7.22;2.92;;;1.40;99.90;;;;;;5017838;28;20051;-90
2023/11/28 09:30:36;;;;;;;5.72;3.30;;;1.40;99.90;;;;;;5029642;28;20022;-90
2023/11/28 09:33:02;;;;;;;5.90;3.10;;;1.40;99.90;;;;;;5014108;28;20532;-90
2023/11/28 09:35:27;;;;;;;7.60;3.45;;;1.50;99.90;;;;;;5013771;28;20048;-90
2023/11/28 09:37:53;;;;;;;5.88;3.22;;;1.50;99.90;;;;;;5019774;28;20053;-90
2023/11/28 09:40:19;;;;;;;5.30;2.60;;;1.50;99.90;;;;;;5015236;28;20462;-90
2023/11/28 09:42:50;;;;;;;5.22;2.45;;;1.60;99.90;;;;;;5028399;28;20034;-90
2023/11/28 09:45:18;;;;;;;4.75;2.70;;;1.70;99.90;;;;;;5007938;28;20029;-89
2023/11/28 09:47:45;;;;;;;6.43;2.70;;;1.70;99.90;;;;;;5021339;28;20030;-90
2023/11/28 09:50:12;;;;;;;4.93;2.65;;;1.80;99.90;;;;;;5022077;28;20024;-90
2023/11/28 09:52:45;;;;;;;5.63;2.85;;;1.80;99.90;;;;;;5012635;28;20033;-90
2023/11/28 09:55:15;;;;;;;5.03;2.13;;;1.90;99.90;;;;;;5017873;28;20022;-89
2023/11/28 09:57:48;;;;;;;4.43;2.35;;;1.90;99.90;;;;;;5014402;28;20499;-87
2023/11/28 10:00:18;;;;;;;5.15;2.05;;;1.90;99.90;;;;;;5026052;28;20061;-90
2023/11/28 10:02:44;;;;;;;4.10;2.15;;;2.00;99.90;;;;;;5012014;28;20057;-89
2023/11/28 10:05:10;;;;;;;5.60;2.08;;;2.00;99.90;;;;;;5030173;28;20502;-89
2023/11/28 10:07:36;;;;;;;3.70;1.67;;;2.10;99.90;;;;;;5015277;28;20116;-89
2023/11/28 10:10:07;;;;;;;4.03;1.73;;;2.10;99.90;;;;;;5018921;28;20018;-90
2023/11/28 10:12:33;;;;;;;4.85;1.85;;;2.20;99.90;;;;;;5016135;28;20513;-89
2023/11/28 10:14:59;;;;;;;4.03;1.35;;;2.20;99.90;;;;;;5020377;28;20037;-89
2023/11/28 10:17:25;;;;;;;4.22;1.80;;;2.20;99.90;;;;;;5031231;28;20029;-89
2023/11/28 10:19:50;;;;;;;6.80;2.17;;;2.30;99.90;;;;;;5031402;28;20025;-89
2023/11/28 10:22:17;;;;;;;6.18;1.88;;;2.30;99.90;;;;;;5008513;28;20605;-89
2023/11/28 10:24:42;;;;;;;3.95;1.77;;;2.30;99.90;;;;;;5014443;28;20021;-89
2023/11/28 10:27:10;;;;;;;4.05;1.65;;;2.40;99.90;;;;;;5030950;28;20041;-88
2023/11/28 10:29:36;;;;;;;3.10;1.63;;;2.40;99.90;;;;;;5027110;28;20029;-89
2023/11/28 10:32:01;;;;;;;3.30;1.40;;;2.50;99.90;;;;;;5013599;28;20026;-89
2023/11/28 10:34:28;;;;;;;2.88;1.38;;;2.50;99.90;;;;;;5014428;28;20037;-89
2023/11/28 10:36:57;;;;;;;4.80;1.75;;;2.60;99.90;;;;;;5032094;28;20026;-89
2023/11/28 10:39:23;;;;;;;4.45;1.67;;;2.60;99.90;;;;;;5022551;28;20050;-89
2023/11/28 10:41:49;;;;;;;2.92;1.33;;;2.60;99.90;;;;;;5034673;28;20211;-89
2023/11/28 10:44:14;;;;;;;3.20;1.63;;;2.70;99.90;;;;;;5017986;28;20040;-89
2023/11/28 10:46:40;;;;;;;2.88;1.30;;;2.70;99.90;;;;;;5023969;28;20112;-89
2023/11/28 10:49:06;;;;;;;2.70;1.20;;;2.80;99.90;;;;;;5017846;28;20036;-89
2023/11/28 10:51:34;;;;;;;2.95;1.15;;;2.80;99.90;;;;;;5017936;28;20018;-88
2023/11/28 10:54:10;;;;;;;4.05;1.30;;;2.80;99.90;;;;;;5021635;28;20101;-88
2023/11/28 10:56:49;;;;;;;3.70;1.65;;;2.70;99.90;;;;;;5012912;28;20036;-88
2023/11/28 10:59:29;;;;;;;4.50;1.80;;;2.70;99.90;;;;;;5017630;28;20111;-89
2023/11/28 11:01:56;;;;;;;4.88;1.88;;;2.80;99.90;;;;;;5017917;28;20040;-88
2023/11/28 11:04:21;;;;;;;3.88;2.03;;;2.80;99.90;;;;;;5007497;28;20021;-88
2023/11/28 11:06:47;;;;;;;3.75;1.50;;;2.90;99.90;;;;;;5032823;28;20029;-88
2023/11/28 11:09:13;;;;;;;3.35;1.90;;;2.90;99.90;;;;;;5024242;28;20025;-89
2023/11/28 11:11:41;;;;;;;5.00;1.80;;;2.90;99.90;;;;;;5024295;28;20029;-88
2023/11/28 11:14:32;;;;;;;4.05;1.90;;;2.90;99.90;;;;;;5016295;28;20430;-88
2023/11/28 11:17:15;;;;;;;3.38;1.98;;;3.00;99.90;;;;;;5031593;28;20029;-87
2023/11/28 11:19:42;;;;;;;;;;;3.00;99.90;;;;;;5016791;28;20405;-88
2023/11/28 11:22:10;;;;;;;3.83;1.38;;;3.00;99.90;;;;;;5032092;28;19966;-88
2023/11/28 11:24:35;;;;;;;3.30;1.77;;;3.00;99.90;;;;;;5025198;28;20440;-89
2023/11/28 11:27:02;;;;;;;3.72;1.90;;;3.00;99.90;;;;;;5016594;28;20033;-89
2023/11/28 11:29:28;;;;;;;4.70;1.80;;;3.10;99.90;;;;;;5021994;28;20022;-89
2023/11/28 11:31:56;;;;;;;2.47;1.42;;;3.10;99.90;;;;;;5018366;28;20044;-89
2023/11/28 11:34:44;;;;;;;3.97;1.98;;;3.10;99.90;;;;;;5012877;28;20025;-89
2023/11/28 11:37:18;;;;;;;5.82;1.75;;;3.10;99.90;;;;;;5019838;28;20093;-89
2023/11/28 11:39:46;;;;;;;4.90;1.65;;;3.20;99.90;;;;;;5018984;28;20045;-89
2023/11/28 11:42:16;;;;;;;6.00;1.75;;;3.20;99.90;;;;;;5015456;28;20075;-89
2023/11/28 11:44:44;;;;;;;2.55;1.33;;;3.20;99.90;;;;;;5014900;28;20541;-89
2023/11/28 11:47:30;;;;;;;2.92;1.35;;;3.20;99.90;;;;;;5032157;28;20026;-89
2023/11/28 11:50:00;;;;;;;3.20;1.60;;;3.20;99.90;;;;;;5016466;28;20055;-89
2023/11/28 11:52:27;;;;;;;6.22;1.60;;;3.20;99.90;;;;;;5015720;28;20025;-89
2023/11/28 11:55:10;;;;;;;4.82;1.65;;;3.20;99.90;;;;;;5008987;28;20053;-89
2023/11/28 11:57:37;;;;;;;;;;;3.20;99.90;;;;;;5016023;28;20550;-89
2023/11/28 12:00:05;;;;;;;4.15;1.55;;;3.30;99.90;;;;;;5017346;28;20000;-89
2023/11/28 12:02:38;;;;;;;5.13;1.40;;;3.30;99.90;;;;;;5011889;28;20034;-90
2023/11/28 12:05:06;;;;;;;11.20;2.03;;;3.40;99.90;;;;;;5012349;28;20532;-90
2023/11/28 12:07:33;;;;;;;4.97;1.13;;;3.50;99.90;;;;;;5030320;28;20020;-90
2023/11/28 12:10:08;;;;;;;3.20;1.63;;;3.50;99.90;;;;;;5009520;28;20056;-90
2023/11/28 12:12:34;;;;;;;4.22;1.90;;;3.50;99.90;;;;;;5012574;28;20049;-90
2023/11/28 12:15:00;;;;;;;3.70;1.90;;;3.60;99.90;;;;;;5025004;28;20068;-90
2023/11/28 12:17:26;;;;;;;4.13;1.52;;;3.60;99.90;;;;;;5011136;28;20478;-90
2023/11/28 12:19:51;;;;;;;3.03;1.77;;;3.70;99.90;;;;;;5033767;28;20026;-90
2023/11/28 12:22:17;;;;;;;4.43;1.60;;;3.80;99.90;;;;;;5012774;28;20038;-90
2023/11/28 12:24:43;;;;;;;3.17;1.42;;;4.00;99.90;;;;;;5012306;28;20494;-90
2023/11/28 12:27:10;;;;;;;4.07;1.60;;;4.10;99.90;;;;;;5015085;28;20044;-91
2023/11/28 12:29:37;;;;;;;2.97;1.25;;;4.20;99.90;;;;;;5022552;28;20025;-89
2023/11/28 12:32:04;;;;;;;2.95;1.55;;;4.30;99.90;;;;;;5012637;28;20029;-89
2023/11/28 12:34:31;;;;;;;4.93;1.77;;;4.40;99.90;;;;;;5021447;28;20118;-89
2023/11/28 12:36:58;;;;;;;5.72;1.52;;;4.50;99.90;;;;;;5016864;28;20026;-89
2023/11/28 12:39:26;;;;;;;3.72;1.30;;;4.60;99.90;;;;;;5017195;28;21735;-90
2023/11/28 12:41:56;;;;;;;3.85;1.13;;;4.50;99.90;;;;;;5009093;28;20477;-90
2023/11/28 12:44:24;;;;;;;4.53;1.90;;;4.40;99.90;;;;;;5001302;28;20533;-89
2023/11/28 12:46:51;;;;;;;3.40;1.40;;;4.30;99.90;;;;;;5015568;28;20025;-90
2023/11/28 12:49:18;;;;;;;5.25;1.40;;;4.10;99.90;;;;;;5034131;28;20474;-90